sensor_id;sensor_type;location;lat;lon;timestamp;pressure;altitude;pressure_sealevel;temperature;humidity
73103;BME280;61294;65.988;29.172;2023-04-20T00:01:47;99404.41;;;-0.08;92.65
73103;BME280;61294;65.988;29.172;2023-04-20T00:04:14;99374.50;;;-0.19;92.00
73103;BME280;61294;65.988;29.172;2023-04-20T00:06:41;99404.63;;;-0.03;92.02
73103;BME280;61294;65.988;29.172;2023-04-20T00:09:12;99399.53;;;-0.02;93.06
73103;BME280;61294;65.988;29.172;2023-04-20T00:11:38;99401.38;;;0.01;93.24
73103;BME280;61294;65.988;29.172;2023-04-20T00:14:04;99392.59;;;-0.03;92.87
73103;BME280;61294;65.988;29.172;2023-04-20T00:16:30;99352.69;;;-0.24;93.12
73103;BME280;61294;65.988;29.172;2023-04-20T00:18:57;99406.56;;;0.01;93.39
73103;BME280;61294;65.988;29.172;2023-04-20T00:21:23;99405.75;;;0.02;93.58
73103;BME280;61294;65.988;29.172;2023-04-20T00:23:49;99373.41;;;-0.06;93.46
73103;BME280;61294;65.988;29.172;2023-04-20T00:26:17;99397.41;;;0.08;93.73
73103;BME280;61294;65.988;29.172;2023-04-20T00:28:43;99406.97;;;0.09;93.95
73103;BME280;61294;65.988;29.172;2023-04-20T00:31:09;99401.00;;;0.11;93.92
73103;BME280;61294;65.988;29.172;2023-04-20T00:33:35;99407.41;;;0.18;93.32
73103;BME280;61294;65.988;29.172;2023-04-20T00:36:01;99414.94;;;0.13;94.20
73103;BME280;61294;65.988;29.172;2023-04-20T00:38:27;99403.84;;;0.16;94.78
73103;BME280;61294;65.988;29.172;2023-04-20T00:40:56;99418.75;;;0.20;94.65
73103;BME280;61294;65.988;29.172;2023-04-20T00:43:22;99428.41;;;0.24;94.97
73103;BME280;61294;65.988;29.172;2023-04-20T00:45:48;99425.34;;;0.31;95.85
73103;BME280;61294;65.988;29.172;2023-04-20T00:48:17;99425.25;;;0.48;96.15
73103;BME280;61294;65.988;29.172;2023-04-20T00:50:43;99406.16;;;0.46;96.11
73103;BME280;61294;65.988;29.172;2023-04-20T00:53:10;99409.97;;;0.54;96.65
73103;BME280;61294;65.988;29.172;2023-04-20T00:55:38;99411.00;;;0.58;96.37
73103;BME280;61294;65.988;29.172;2023-04-20T00:58:04;99409.09;;;0.54;96.05
73103;BME280;61294;65.988;29.172;2023-04-20T01:00:31;99409.16;;;0.55;96.46
73103;BME280;61294;65.988;29.172;2023-04-20T01:02:57;99370.47;;;0.40;96.55
73103;BME280;61294;65.988;29.172;2023-04-20T01:05:23;99378.38;;;0.43;96.33
73103;BME280;61294;65.988;29.172;2023-04-20T01:07:50;99399.16;;;0.63;96.41
73103;BME280;61294;65.988;29.172;2023-04-20T01:10:15;99377.09;;;0.53;95.65
73103;BME280;61294;65.988;29.172;2023-04-20T01:12:41;99390.41;;;0.61;96.15
73103;BME280;61294;65.988;29.172;2023-04-20T01:15:07;99380.19;;;0.64;96.06
73103;BME280;61294;65.988;29.172;2023-04-20T01:17:34;99384.03;;;0.72;96.17
73103;BME280;61294;65.988;29.172;2023-04-20T01:20:08;99384.91;;;0.73;96.39
73103;BME280;61294;65.988;29.172;2023-04-20T01:22:54;99377.44;;;0.79;95.80
73103;BME280;61294;65.988;29.172;2023-04-20T01:25:20;99366.91;;;0.76;95.92
73103;BME280;61294;65.988;29.172;2023-04-20T01:27:46;99359.94;;;0.75;95.64
73103;BME280;61294;65.988;29.172;2023-04-20T01:30:12;99361.56;;;0.73;95.55
73103;BME280;61294;65.988;29.172;2023-04-20T01:32:39;99359.06;;;0.74;94.90
73103;BME280;61294;65.988;29.172;2023-04-20T01:35:05;99352.09;;;0.73;94.82
73103;BME280;61294;65.988;29.172;2023-04-20T01:37:31;99345.50;;;0.80;94.83
73103;BME280;61294;65.988;29.172;2023-04-20T01:39:57;99353.41;;;0.83;95.11
73103;BME280;61294;65.988;29.172;2023-04-20T01:42:23;99313.59;;;0.63;94.58
73103;BME280;61294;65.988;29.172;2023-04-20T01:44:49;99336.75;;;0.78;94.58
73103;BME280;61294;65.988;29.172;2023-04-20T01:47:15;99330.69;;;0.77;94.79
73103;BME280;61294;65.988;29.172;2023-04-20T01:49:40;99331.69;;;0.81;95.08
73103;BME280;61294;65.988;29.172;2023-04-20T01:52:07;99327.34;;;0.80;95.02
73103;BME280;61294;65.988;29.172;2023-04-20T01:54:33;99281.72;;;0.65;94.57
73103;BME280;61294;65.988;29.172;2023-04-20T01:56:59;99327.25;;;0.78;94.45
73103;BME280;61294;65.988;29.172;2023-04-20T01:59:25;99327.78;;;0.71;94.94
73103;BME280;61294;65.988;29.172;2023-04-20T02:01:50;99309.50;;;0.68;95.40
73103;BME280;61294;65.988;29.172;2023-04-20T02:04:16;99312.38;;;0.74;94.79
73103;BME280;61294;65.988;29.172;2023-04-20T02:06:42;99320.84;;;0.70;94.99
73103;BME280;61294;65.988;29.172;2023-04-20T02:09:08;99308.88;;;0.74;95.86
73103;BME280;61294;65.988;29.172;2023-04-20T02:11:34;99303.63;;;0.72;95.94
73103;BME280;61294;65.988;29.172;2023-04-20T02:14:00;99278.19;;;0.63;96.58
73103;BME280;61294;65.988;29.172;2023-04-20T02:16:26;99301.41;;;0.80;97.92
73103;BME280;61294;65.988;29.172;2023-04-20T02:18:54;99297.78;;;0.76;98.56
73103;BME280;61294;65.988;29.172;2023-04-20T02:21:20;99290.72;;;0.74;98.09
73103;BME280;61294;65.988;29.172;2023-04-20T02:23:45;99274.91;;;0.67;99.48
73103;BME280;61294;65.988;29.172;2023-04-20T02:26:11;99267.88;;;0.65;99.70
73103;BME280;61294;65.988;29.172;2023-04-20T02:28:37;99274.16;;;0.70;99.39
73103;BME280;61294;65.988;29.172;2023-04-20T02:31:03;99270.00;;;0.74;100.00
73103;BME280;61294;65.988;29.172;2023-04-20T02:33:29;99249.72;;;0.65;98.95
73103;BME280;61294;65.988;29.172;2023-04-20T02:35:55;99254.56;;;0.77;99.41
73103;BME280;61294;65.988;29.172;2023-04-20T02:38:21;99234.50;;;0.73;99.73
73103;BME280;61294;65.988;29.172;2023-04-20T02:40:46;99233.19;;;0.82;99.28
73103;BME280;61294;65.988;29.172;2023-04-20T02:43:12;99231.09;;;0.74;99.27
73103;BME280;61294;65.988;29.172;2023-04-20T02:45:38;99219.16;;;0.77;99.41
73103;BME280;61294;65.988;29.172;2023-04-20T02:48:04;99220.84;;;0.77;99.19
73103;BME280;61294;65.988;29.172;2023-04-20T02:50:30;99218.41;;;0.80;99.41
73103;BME280;61294;65.988;29.172;2023-04-20T02:52:55;99225.34;;;0.81;98.64
73103;BME280;61294;65.988;29.172;2023-04-20T02:55:21;99198.97;;;0.70;98.53
73103;BME280;61294;65.988;29.172;2023-04-20T02:57:47;99217.25;;;0.73;98.79
73103;BME280;61294;65.988;29.172;2023-04-20T03:00:13;99213.91;;;0.76;98.06
73103;BME280;61294;65.988;29.172;2023-04-20T03:02:38;99228.91;;;0.83;98.12
73103;BME280;61294;65.988;29.172;2023-04-20T03:05:04;99216.88;;;0.85;98.61
73103;BME280;61294;65.988;29.172;2023-04-20T03:07:30;99198.72;;;0.85;98.90
73103;BME280;61294;65.988;29.172;2023-04-20T03:09:56;99195.50;;;0.91;99.49
73103;BME280;61294;65.988;29.172;2023-04-20T03:12:22;99180.50;;;0.83;98.87
73103;BME280;61294;65.988;29.172;2023-04-20T03:14:48;99207.84;;;0.96;98.93
73103;BME280;61294;65.988;29.172;2023-04-20T03:17:13;99190.66;;;0.98;99.21
73103;BME280;61294;65.988;29.172;2023-04-20T03:19:39;99195.97;;;1.01;100.00
73103;BME280;61294;65.988;29.172;2023-04-20T03:22:06;99189.31;;;1.08;100.00
73103;BME280;61294;65.988;29.172;2023-04-20T03:24:32;99182.09;;;1.01;100.00
73103;BME280;61294;65.988;29.172;2023-04-20T03:26:57;99201.47;;;1.09;100.00
73103;BME280;61294;65.988;29.172;2023-04-20T03:29:23;99191.91;;;1.08;100.00
73103;BME280;61294;65.988;29.172;2023-04-20T03:31:49;99183.19;;;1.06;100.00
73103;BME280;61294;65.988;29.172;2023-04-20T03:34:14;99181.47;;;1.07;100.00
73103;BME280;61294;65.988;29.172;2023-04-20T03:36:40;99179.22;;;1.14;100.00
73103;BME280;61294;65.988;29.172;2023-04-20T03:39:06;99175.97;;;1.20;99.15
73103;BME280;61294;65.988;29.172;2023-04-20T03:41:32;99174.19;;;1.19;99.17
73103;BME280;61294;65.988;29.172;2023-04-20T03:43:58;99146.09;;;1.09;99.52
73103;BME280;61294;65.988;29.172;2023-04-20T03:46:23;99168.50;;;1.28;98.99
73103;BME280;61294;65.988;29.172;2023-04-20T03:48:49;99167.72;;;1.30;98.72
73103;BME280;61294;65.988;29.172;2023-04-20T03:51:15;99167.84;;;1.33;98.70
73103;BME280;61294;65.988;29.172;2023-04-20T03:53:41;99160.75;;;1.29;99.08
73103;BME280;61294;65.988;29.172;2023-04-20T03:56:06;99142.53;;;1.28;98.30
73103;BME280;61294;65.988;29.172;2023-04-20T03:58:32;99145.00;;;1.25;97.80
73103;BME280;61294;65.988;29.172;2023-04-20T04:01:05;99152.97;;;1.29;99.04
73103;BME280;61294;65.988;29.172;2023-04-20T04:03:33;99153.94;;;1.31;99.08
73103;BME280;61294;65.988;29.172;2023-04-20T04:05:58;99175.63;;;1.33;99.75
73103;BME280;61294;65.988;29.172;2023-04-20T04:08:24;99154.00;;;1.12;100.00
73103;BME280;61294;65.988;29.172;2023-04-20T04:10:51;99173.09;;;1.35;100.00
73103;BME280;61294;65.988;29.172;2023-04-20T04:13:17;99176.47;;;1.32;100.00
73103;BME280;61294;65.988;29.172;2023-04-20T04:15:43;99171.41;;;1.35;100.00
73103;BME280;61294;65.988;29.172;2023-04-20T04:18:08;99166.47;;;1.42;100.00
73103;BME280;61294;65.988;29.172;2023-04-20T04:20:34;99161.38;;;1.45;100.00
73103;BME280;61294;65.988;29.172;2023-04-20T04:23:00;99163.44;;;1.53;100.00
73103;BME280;61294;65.988;29.172;2023-04-20T04:25:26;99159.50;;;1.63;100.00
73103;BME280;61294;65.988;29.172;2023-04-20T04:27:52;99146.19;;;1.54;100.00
73103;BME280;61294;65.988;29.172;2023-04-20T04:30:19;99155.06;;;1.61;100.00
73103;BME280;61294;65.988;29.172;2023-04-20T04:32:44;99123.63;;;1.53;100.00
73103;BME280;61294;65.988;29.172;2023-04-20T04:35:12;99145.81;;;1.90;100.00
73103;BME280;61294;65.988;29.172;2023-04-20T04:37:38;99138.91;;;1.90;100.00
73103;BME280;61294;65.988;29.172;2023-04-20T04:40:04;99132.00;;;1.91;100.00
73103;BME280;61294;65.988;29.172;2023-04-20T04:42:34;99131.59;;;1.80;100.00
73103;BME280;61294;65.988;29.172;2023-04-20T04:45:00;99114.41;;;1.84;99.79
73103;BME280;61294;65.988;29.172;2023-04-20T04:47:35;99104.09;;;1.85;99.36
73103;BME280;61294;65.988;29.172;2023-04-20T04:50:04;99120.66;;;1.89;99.08
73103;BME280;61294;65.988;29.172;2023-04-20T04:52:31;99124.44;;;1.97;98.83
73103;BME280;61294;65.988;29.172;2023-04-20T04:54:57;99123.47;;;1.95;97.98
73103;BME280;61294;65.988;29.172;2023-04-20T04:57:23;99115.53;;;2.15;97.71
73103;BME280;61294;65.988;29.172;2023-04-20T04:59:49;99109.72;;;2.22;99.38
73103;BME280;61294;65.988;29.172;2023-04-20T05:02:15;99084.75;;;2.01;98.91
73103;BME280;61294;65.988;29.172;2023-04-20T05:04:41;99134.94;;;2.00;100.00
73103;BME280;61294;65.988;29.172;2023-04-20T05:07:06;99120.16;;;1.99;100.00
73103;BME280;61294;65.988;29.172;2023-04-20T05:09:35;99118.53;;;2.01;100.00
73103;BME280;61294;65.988;29.172;2023-04-20T05:12:01;99113.53;;;2.07;100.00
73103;BME280;61294;65.988;29.172;2023-04-20T05:14:30;99110.19;;;2.10;100.00
73103;BME280;61294;65.988;29.172;2023-04-20T05:16:57;99106.16;;;2.18;100.00
73103;BME280;61294;65.988;29.172;2023-04-20T05:19:23;99105.59;;;2.27;100.00
73103;BME280;61294;65.988;29.172;2023-04-20T05:21:49;99100.53;;;2.32;100.00
73103;BME280;61294;65.988;29.172;2023-04-20T05:24:15;99082.09;;;2.24;100.00
73103;BME280;61294;65.988;29.172;2023-04-20T05:26:42;99047.66;;;2.05;100.00
73103;BME280;61294;65.988;29.172;2023-04-20T05:29:08;99077.97;;;2.31;100.00
73103;BME280;61294;65.988;29.172;2023-04-20T05:31:34;99097.28;;;2.37;100.00
73103;BME280;61294;65.988;29.172;2023-04-20T05:34:00;99077.00;;;2.27;100.00
73103;BME280;61294;65.988;29.172;2023-04-20T05:36:28;99102.72;;;2.45;100.00
73103;BME280;61294;65.988;29.172;2023-04-20T05:38:54;99099.28;;;2.70;100.00
73103;BME280;61294;65.988;29.172;2023-04-20T05:41:20;99106.00;;;2.89;100.00
73103;BME280;61294;65.988;29.172;2023-04-20T05:43:51;99093.31;;;3.00;100.00
73103;BME280;61294;65.988;29.172;2023-04-20T05:46:17;99099.91;;;3.16;100.00
73103;BME280;61294;65.988;29.172;2023-04-20T05:48:43;99084.22;;;3.15;100.00
73103;BME280;61294;65.988;29.172;2023-04-20T05:51:09;99102.13;;;3.31;100.00
73103;BME280;61294;65.988;29.172;2023-04-20T05:53:34;99101.34;;;3.34;100.00
73103;BME280;61294;65.988;29.172;2023-04-20T05:56:00;99086.94;;;3.45;99.24
73103;BME280;61294;65.988;29.172;2023-04-20T05:58:27;99085.09;;;3.42;98.70
73103;BME280;61294;65.988;29.172;2023-04-20T06:00:52;99083.19;;;3.37;98.99
73103;BME280;61294;65.988;29.172;2023-04-20T06:03:19;99069.41;;;3.39;98.32
73103;BME280;61294;65.988;29.172;2023-04-20T06:05:44;99093.28;;;3.55;97.59
73103;BME280;61294;65.988;29.172;2023-04-20T06:08:10;99084.84;;;3.62;97.12
73103;BME280;61294;65.988;29.172;2023-04-20T06:10:36;99055.06;;;3.54;96.29
73103;BME280;61294;65.988;29.172;2023-04-20T06:13:02;99100.16;;;3.82;95.48
73103;BME280;61294;65.988;29.172;2023-04-20T06:15:28;99097.47;;;3.78;95.11
73103;BME280;61294;65.988;29.172;2023-04-20T06:17:53;99072.44;;;3.84;94.31
73103;BME280;61294;65.988;29.172;2023-04-20T06:20:19;99063.69;;;3.82;93.11
73103;BME280;61294;65.988;29.172;2023-04-20T06:22:45;99080.72;;;3.99;92.89
73103;BME280;61294;65.988;29.172;2023-04-20T06:25:11;99090.06;;;3.92;92.98
73103;BME280;61294;65.988;29.172;2023-04-20T06:27:38;99075.91;;;3.84;92.34
73103;BME280;61294;65.988;29.172;2023-04-20T06:30:04;99089.94;;;3.88;92.25
73103;BME280;61294;65.988;29.172;2023-04-20T06:32:30;99095.06;;;3.86;92.33
73103;BME280;61294;65.988;29.172;2023-04-20T06:34:56;99086.66;;;3.95;92.28
73103;BME280;61294;65.988;29.172;2023-04-20T06:37:22;99086.63;;;3.93;91.71
73103;BME280;61294;65.988;29.172;2023-04-20T06:39:52;99090.69;;;3.84;91.74
73103;BME280;61294;65.988;29.172;2023-04-20T06:42:18;99087.38;;;3.89;92.07
73103;BME280;61294;65.988;29.172;2023-04-20T06:44:44;99085.84;;;3.97;91.52
73103;BME280;61294;65.988;29.172;2023-04-20T06:47:10;99088.59;;;4.02;90.96
73103;BME280;61294;65.988;29.172;2023-04-20T06:49:35;99090.59;;;4.11;90.66
73103;BME280;61294;65.988;29.172;2023-04-20T06:52:04;99082.72;;;4.09;90.35
73103;BME280;61294;65.988;29.172;2023-04-20T06:54:31;99095.28;;;4.24;89.60
73103;BME280;61294;65.988;29.172;2023-04-20T06:56:56;99103.78;;;4.17;89.74
73103;BME280;61294;65.988;29.172;2023-04-20T06:59:22;99097.91;;;4.24;89.77
73103;BME280;61294;65.988;29.172;2023-04-20T07:01:48;99101.03;;;4.44;89.15
73103;BME280;61294;65.988;29.172;2023-04-20T07:04:13;99104.38;;;4.39;88.89
73103;BME280;61294;65.988;29.172;2023-04-20T07:06:39;99111.25;;;4.35;89.43
73103;BME280;61294;65.988;29.172;2023-04-20T07:09:05;99093.78;;;4.32;89.16
73103;BME280;61294;65.988;29.172;2023-04-20T07:11:32;99113.16;;;4.41;89.30
73103;BME280;61294;65.988;29.172;2023-04-20T07:13:58;99115.03;;;4.46;88.83
73103;BME280;61294;65.988;29.172;2023-04-20T07:16:24;99113.09;;;4.39;89.19
73103;BME280;61294;65.988;29.172;2023-04-20T07:18:50;99110.81;;;4.52;89.37
73103;BME280;61294;65.988;29.172;2023-04-20T07:21:15;99104.03;;;4.58;88.68
73103;BME280;61294;65.988;29.172;2023-04-20T07:23:41;99097.38;;;4.36;89.68
73103;BME280;61294;65.988;29.172;2023-04-20T07:26:07;99112.81;;;4.60;88.97
73103;BME280;61294;65.988;29.172;2023-04-20T07:28:33;99119.53;;;4.86;89.18
73103;BME280;61294;65.988;29.172;2023-04-20T07:30:58;99112.09;;;4.66;88.97
73103;BME280;61294;65.988;29.172;2023-04-20T07:33:24;99114.69;;;4.66;89.93
73103;BME280;61294;65.988;29.172;2023-04-20T07:35:51;99114.47;;;4.92;88.81
73103;BME280;61294;65.988;29.172;2023-04-20T07:38:16;99122.22;;;5.24;88.20
73103;BME280;61294;65.988;29.172;2023-04-20T07:40:42;99121.13;;;5.15;86.98
73103;BME280;61294;65.988;29.172;2023-04-20T07:43:08;99122.22;;;5.24;87.39
73103;BME280;61294;65.988;29.172;2023-04-20T07:45:33;99117.63;;;5.13;87.10
73103;BME280;61294;65.988;29.172;2023-04-20T07:47:59;99129.47;;;4.99;87.80
73103;BME280;61294;65.988;29.172;2023-04-20T07:50:26;99118.66;;;4.85;88.81
73103;BME280;61294;65.988;29.172;2023-04-20T07:52:52;99118.03;;;4.95;88.25
73103;BME280;61294;65.988;29.172;2023-04-20T07:55:18;99124.72;;;5.19;88.22
73103;BME280;61294;65.988;29.172;2023-04-20T07:57:44;99133.56;;;5.26;87.17
73103;BME280;61294;65.988;29.172;2023-04-20T08:00:11;99134.47;;;5.26;87.41
73103;BME280;61294;65.988;29.172;2023-04-20T08:02:37;99134.28;;;5.18;86.68
73103;BME280;61294;65.988;29.172;2023-04-20T08:05:03;99134.91;;;5.08;87.56
73103;BME280;61294;65.988;29.172;2023-04-20T08:07:30;99142.47;;;4.97;87.91
73103;BME280;61294;65.988;29.172;2023-04-20T08:09:56;99143.38;;;4.99;87.55
73103;BME280;61294;65.988;29.172;2023-04-20T08:12:22;99133.75;;;4.97;87.69
73103;BME280;61294;65.988;29.172;2023-04-20T08:14:47;99153.13;;;5.07;87.42
73103;BME280;61294;65.988;29.172;2023-04-20T08:17:13;99155.28;;;4.88;87.99
73103;BME280;61294;65.988;29.172;2023-04-20T08:19:39;99147.25;;;4.80;88.05
73103;BME280;61294;65.988;29.172;2023-04-20T08:22:04;99160.34;;;4.82;88.49
73103;BME280;61294;65.988;29.172;2023-04-20T08:24:31;99162.94;;;4.82;88.18
73103;BME280;61294;65.988;29.172;2023-04-20T08:26:56;99160.16;;;4.76;88.45
73103;BME280;61294;65.988;29.172;2023-04-20T08:29:24;99167.88;;;4.71;88.77
73103;BME280;61294;65.988;29.172;2023-04-20T08:31:49;99124.44;;;4.41;88.41
73103;BME280;61294;65.988;29.172;2023-04-20T08:34:15;99171.59;;;4.79;88.29
73103;BME280;61294;65.988;29.172;2023-04-20T08:36:41;99165.75;;;4.90;87.19
73103;BME280;61294;65.988;29.172;2023-04-20T08:39:11;99166.56;;;4.87;86.98
73103;BME280;61294;65.988;29.172;2023-04-20T08:41:37;99164.22;;;4.98;86.81
73103;BME280;61294;65.988;29.172;2023-04-20T08:44:03;99174.41;;;5.22;85.87
73103;BME280;61294;65.988;29.172;2023-04-20T08:46:30;99180.25;;;5.47;84.76
73103;BME280;61294;65.988;29.172;2023-04-20T08:48:56;99172.44;;;5.48;83.40
73103;BME280;61294;65.988;29.172;2023-04-20T08:51:24;99175.56;;;5.33;83.65
73103;BME280;61294;65.988;29.172;2023-04-20T08:53:50;99181.00;;;5.43;83.33
73103;BME280;61294;65.988;29.172;2023-04-20T08:56:17;99171.22;;;5.70;82.55
73103;BME280;61294;65.988;29.172;2023-04-20T08:58:43;99177.13;;;6.00;80.64
73103;BME280;61294;65.988;29.172;2023-04-20T09:01:11;99185.75;;;5.96;80.41
73103;BME280;61294;65.988;29.172;2023-04-20T09:03:39;99201.22;;;5.86;80.40
73103;BME280;61294;65.988;29.172;2023-04-20T09:06:16;99179.09;;;5.72;81.02
73103;BME280;61294;65.988;29.172;2023-04-20T09:08:43;99191.91;;;5.61;81.23
73103;BME280;61294;65.988;29.172;2023-04-20T09:11:25;99193.75;;;6.43;79.14
73103;BME280;61294;65.988;29.172;2023-04-20T09:14:02;99192.69;;;6.33;77.82
73103;BME280;61294;65.988;29.172;2023-04-20T09:16:31;99189.25;;;6.80;76.20
73103;BME280;61294;65.988;29.172;2023-04-20T09:18:57;99198.97;;;6.86;74.73
73103;BME280;61294;65.988;29.172;2023-04-20T09:21:25;99202.00;;;6.63;76.11
73103;BME280;61294;65.988;29.172;2023-04-20T09:23:57;99196.56;;;6.52;75.73
73103;BME280;61294;65.988;29.172;2023-04-20T09:26:23;99196.44;;;6.46;75.96
73103;BME280;61294;65.988;29.172;2023-04-20T09:28:49;99190.22;;;6.41;76.31
73103;BME280;61294;65.988;29.172;2023-04-20T09:31:19;99196.13;;;6.31;76.22
73103;BME280;61294;65.988;29.172;2023-04-20T09:33:58;99198.47;;;6.61;74.86
73103;BME280;61294;65.988;29.172;2023-04-20T09:36:51;99213.31;;;7.08;73.19
73103;BME280;61294;65.988;29.172;2023-04-20T09:39:21;99195.44;;;6.85;72.76
73103;BME280;61294;65.988;29.172;2023-04-20T09:41:49;99204.66;;;7.11;72.58
73103;BME280;61294;65.988;29.172;2023-04-20T09:44:16;99193.25;;;7.07;72.69
73103;BME280;61294;65.988;29.172;2023-04-20T09:46:43;99182.00;;;7.13;71.85
73103;BME280;61294;65.988;29.172;2023-04-20T09:49:11;99195.47;;;10.77;63.48
73103;BME280;61294;65.988;29.172;2023-04-20T09:51:42;99176.81;;;17.26;43.69
73103;BME280;61294;65.988;29.172;2023-04-20T09:54:11;99200.88;;;11.48;52.33
73103;BME280;61294;65.988;29.172;2023-04-20T09:56:38;99191.19;;;11.99;52.05
73103;BME280;61294;65.988;29.172;2023-04-20T09:59:04;99175.91;;;10.19;56.90
73103;BME280;61294;65.988;29.172;2023-04-20T10:01:31;99200.88;;;9.54;59.39
73103;BME280;61294;65.988;29.172;2023-04-20T10:04:00;99180.66;;;11.71;53.11
73103;BME280;61294;65.988;29.172;2023-04-20T10:06:29;99198.88;;;10.49;55.97
73103;BME280;61294;65.988;29.172;2023-04-20T10:08:56;99205.81;;;10.32;57.38
73103;BME280;61294;65.988;29.172;2023-04-20T10:13:51;99196.84;;;10.02;56.79
73103;BME280;61294;65.988;29.172;2023-04-20T10:16:17;99212.25;;;10.99;57.36
73103;BME280;61294;65.988;29.172;2023-04-20T10:18:55;99206.53;;;13.24;48.94
73103;BME280;61294;65.988;29.172;2023-04-20T10:21:20;99213.19;;;12.11;52.34
73103;BME280;61294;65.988;29.172;2023-04-20T10:23:51;99203.31;;;12.71;49.81
73103;BME280;61294;65.988;29.172;2023-04-20T10:26:17;99185.84;;;14.61;46.53
73103;BME280;61294;65.988;29.172;2023-04-20T10:28:42;99192.47;;;14.23;47.48
73103;BME280;61294;65.988;29.172;2023-04-20T10:31:12;99171.63;;;19.46;38.03
73103;BME280;61294;65.988;29.172;2023-04-20T10:33:53;99188.50;;;18.25;37.79
73103;BME280;61294;65.988;29.172;2023-04-20T10:36:37;99184.09;;;17.91;37.91
73103;BME280;61294;65.988;29.172;2023-04-20T10:39:14;99188.25;;;16.90;40.10
73103;BME280;61294;65.988;29.172;2023-04-20T10:41:56;99184.16;;;19.16;36.35
73103;BME280;61294;65.988;29.172;2023-04-20T10:44:28;99187.00;;;19.38;35.87
73103;BME280;61294;65.988;29.172;2023-04-20T10:46:55;99182.97;;;20.57;33.65
73103;BME280;61294;65.988;29.172;2023-04-20T10:49:26;99189.28;;;23.87;28.87
73103;BME280;61294;65.988;29.172;2023-04-20T10:51:53;99188.72;;;18.51;34.91
73103;BME280;61294;65.988;29.172;2023-04-20T10:54:19;99188.56;;;23.08;30.10
73103;BME280;61294;65.988;29.172;2023-04-20T10:56:47;99190.50;;;21.40;30.67
73103;BME280;61294;65.988;29.172;2023-04-20T10:59:15;99186.28;;;18.08;35.58
73103;BME280;61294;65.988;29.172;2023-04-20T11:01:41;99177.38;;;22.99;28.56
73103;BME280;61294;65.988;29.172;2023-04-20T11:04:10;99171.97;;;23.92;27.79
73103;BME280;61294;65.988;29.172;2023-04-20T11:06:39;99173.63;;;23.95;27.56
73103;BME280;61294;65.988;29.172;2023-04-20T11:09:18;99182.28;;;20.99;30.20
73103;BME280;61294;65.988;29.172;2023-04-20T11:11:45;99180.75;;;22.45;30.27
73103;BME280;61294;65.988;29.172;2023-04-20T11:14:11;99172.28;;;24.04;27.73
73103;BME280;61294;65.988;29.172;2023-04-20T11:16:37;99160.84;;;24.85;26.53
73103;BME280;61294;65.988;29.172;2023-04-20T11:19:04;99181.19;;;22.14;28.72
73103;BME280;61294;65.988;29.172;2023-04-20T11:21:41;99166.75;;;21.96;29.40
73103;BME280;61294;65.988;29.172;2023-04-20T11:24:39;99169.28;;;24.10;27.51
73103;BME280;61294;65.988;29.172;2023-04-20T11:27:07;99155.19;;;26.44;24.78
73103;BME280;61294;65.988;29.172;2023-04-20T11:29:37;99149.28;;;26.38;24.71
73103;BME280;61294;65.988;29.172;2023-04-20T11:32:05;99159.00;;;24.85;25.62
73103;BME280;61294;65.988;29.172;2023-04-20T11:34:36;99166.97;;;24.20;25.12
73103;BME280;61294;65.988;29.172;2023-04-20T11:37:03;99153.06;;;24.45;25.58
73103;BME280;61294;65.988;29.172;2023-04-20T11:39:29;99156.94;;;26.00;25.22
73103;BME280;61294;65.988;29.172;2023-04-20T11:41:55;99154.06;;;26.18;23.59
73103;BME280;61294;65.988;29.172;2023-04-20T11:44:22;99163.72;;;20.22;29.93
73103;BME280;61294;65.988;29.172;2023-04-20T11:46:49;99149.50;;;22.63;27.37
73103;BME280;61294;65.988;29.172;2023-04-20T11:49:15;99142.16;;;25.61;24.94
73103;BME280;61294;65.988;29.172;2023-04-20T11:51:41;99141.31;;;28.93;22.17
73103;BME280;61294;65.988;29.172;2023-04-20T11:54:08;99135.28;;;28.38;21.71
73103;BME280;61294;65.988;29.172;2023-04-20T11:56:34;99130.41;;;28.69;21.88
73103;BME280;61294;65.988;29.172;2023-04-20T11:58:59;99130.22;;;27.93;22.30
73103;BME280;61294;65.988;29.172;2023-04-20T12:01:25;99122.88;;;26.28;23.47
73103;BME280;61294;65.988;29.172;2023-04-20T12:03:51;99119.53;;;28.95;21.59
73103;BME280;61294;65.988;29.172;2023-04-20T12:06:16;99116.50;;;29.96;20.26
73103;BME280;61294;65.988;29.172;2023-04-20T12:08:42;99106.84;;;27.92;21.96
73103;BME280;61294;65.988;29.172;2023-04-20T12:11:08;99104.34;;;29.53;20.37
73103;BME280;61294;65.988;29.172;2023-04-20T12:13:33;99103.63;;;28.00;20.99
73103;BME280;61294;65.988;29.172;2023-04-20T12:15:59;99104.31;;;26.22;23.05
73103;BME280;61294;65.988;29.172;2023-04-20T12:18:25;99098.66;;;25.96;23.62
73103;BME280;61294;65.988;29.172;2023-04-20T12:20:51;99097.47;;;25.09;23.71
73103;BME280;61294;65.988;29.172;2023-04-20T12:23:16;99108.59;;;24.38;25.35
73103;BME280;61294;65.988;29.172;2023-04-20T12:25:42;99106.03;;;25.64;23.94
73103;BME280;61294;65.988;29.172;2023-04-20T12:28:08;99106.16;;;24.16;24.50
73103;BME280;61294;65.988;29.172;2023-04-20T12:30:33;99102.88;;;24.93;24.64
73103;BME280;61294;65.988;29.172;2023-04-20T12:33:01;99116.78;;;25.80;23.99
73103;BME280;61294;65.988;29.172;2023-04-20T12:35:27;99111.22;;;28.20;22.11
73103;BME280;61294;65.988;29.172;2023-04-20T12:37:53;99108.00;;;26.79;22.24
73103;BME280;61294;65.988;29.172;2023-04-20T12:40:19;99108.78;;;25.16;24.05
73103;BME280;61294;65.988;29.172;2023-04-20T12:42:44;99110.75;;;26.05;22.80
73103;BME280;61294;65.988;29.172;2023-04-20T12:45:10;99110.81;;;26.34;23.34
73103;BME280;61294;65.988;29.172;2023-04-20T12:47:36;99100.78;;;26.22;23.13
73103;BME280;61294;65.988;29.172;2023-04-20T12:50:02;99101.59;;;22.73;25.71
73103;BME280;61294;65.988;29.172;2023-04-20T12:52:28;99095.63;;;22.47;26.31
73103;BME280;61294;65.988;29.172;2023-04-20T12:54:54;99098.78;;;21.11;28.22
73103;BME280;61294;65.988;29.172;2023-04-20T12:57:21;99097.03;;;20.88;28.32